createdAt,value
2023-05-22T00:00:14.843Z,96184.69
2023-05-22T00:02:16.620Z,96182.22
2023-05-22T00:04:18.183Z,96173.22
2023-05-22T00:06:19.785Z,96176.50
2023-05-22T00:08:21.299Z,96179.06
2023-05-22T00:10:23.203Z,96174.16
2023-05-22T00:12:24.867Z,96174.16
2023-05-22T00:14:27.728Z,96175.06
2023-05-22T00:16:29.303Z,96167.69
2023-05-22T00:18:30.915Z,96174.69
2023-05-22T00:20:32.434Z,96175.38
2023-05-22T00:22:34.023Z,96171.06
2023-05-22T00:24:35.783Z,96168.81
2023-05-22T00:26:37.291Z,96170.69
2023-05-22T00:28:38.825Z,96165.09
2023-05-22T00:30:42.022Z,96165.31
2023-05-22T00:32:43.697Z,96169.88
2023-05-22T00:34:45.311Z,96168.25
2023-05-22T00:36:46.904Z,96171.38
2023-05-22T00:38:48.471Z,96161.31
2023-05-22T00:40:50.048Z,96159.91
2023-05-22T00:42:51.599Z,96164.22
2023-05-22T00:44:53.254Z,96169.00
2023-05-22T00:46:56.228Z,96160.22
2023-05-22T00:48:57.789Z,96165.00
2023-05-22T00:51:00.219Z,96163.38
2023-05-22T00:53:02.056Z,96159.94
2023-05-22T00:55:04.165Z,96166.03
2023-05-22T00:57:06.308Z,96170.97
2023-05-22T00:59:08.219Z,96170.22
2023-05-22T01:01:11.104Z,96164.25
2023-05-22T01:03:15.145Z,96175.66
2023-05-22T01:05:16.928Z,96171.81
2023-05-22T01:07:18.485Z,96174.06
2023-05-22T01:09:20.038Z,96176.94
2023-05-22T01:11:28.281Z,96179.50
2023-05-22T01:13:36.305Z,96178.22
2023-05-22T01:15:43.963Z,96178.63
2023-05-22T01:17:50.764Z,96161.41
2023-05-22T01:20:12.213Z,96176.59
2023-05-22T01:22:40.790Z,96167.22
2023-05-22T01:25:09.745Z,96170.47
2023-05-22T01:27:42.767Z,96175.31
2023-05-22T01:29:50.467Z,96182.84
2023-05-22T01:31:57.141Z,96179.63
2023-05-22T01:34:02.463Z,96185.38
2023-05-22T01:36:08.631Z,96190.13
2023-05-22T01:38:11.353Z,96181.66
2023-05-22T01:40:13.699Z,96181.06
2023-05-22T01:42:15.300Z,96192.44
2023-05-22T01:44:16.992Z,96193.25
2023-05-22T01:46:18.573Z,96185.22
2023-05-22T01:48:21.550Z,96187.50
2023-05-22T01:50:23.409Z,96184.25
2023-05-22T01:52:34.932Z,96190.56
2023-05-22T01:54:43.745Z,96186.09
2023-05-22T01:56:52.302Z,96191.91
2023-05-22T01:59:01.427Z,96190.41
2023-05-22T02:01:04.017Z,96185.50
2023-05-22T02:03:08.671Z,96193.75
2023-05-22T02:05:15.458Z,96196.44
2023-05-22T02:07:20.971Z,96196.66
2023-05-22T02:09:24.372Z,96180.28
2023-05-22T02:11:27.482Z,96191.16
2023-05-22T02:13:29.675Z,96191.97
2023-05-22T02:15:31.488Z,96198.59
2023-05-22T02:17:36.954Z,96192.19
2023-05-22T02:19:38.619Z,96193.22
2023-05-22T02:21:41.726Z,96190.69
2023-05-22T02:23:43.401Z,96191.75
2023-05-22T02:25:45.009Z,96187.88
2023-05-22T02:27:47.880Z,96196.50
2023-05-22T02:29:49.424Z,96190.53
2023-05-22T02:31:53.749Z,96188.75
2023-05-22T02:33:55.396Z,96190.31
2023-05-22T02:35:56.950Z,96185.78
2023-05-22T02:37:59.821Z,96188.03
2023-05-22T02:40:01.450Z,96190.31
2023-05-22T02:42:03.027Z,96186.59
2023-05-22T02:44:04.876Z,96185.41
2023-05-22T02:46:06.459Z,96190.09
2023-05-22T02:48:08.074Z,96188.47
2023-05-22T02:50:10.155Z,96187.44
2023-05-22T02:52:11.746Z,96185.13
2023-05-22T02:54:15.748Z,96179.53
2023-05-22T02:56:17.369Z,96186.97
2023-05-22T02:58:18.881Z,96186.97
2023-05-22T03:00:20.808Z,96183.09
2023-05-22T03:02:22.312Z,96186.38
2023-05-22T03:04:24.116Z,96181.56
2023-05-22T03:06:25.678Z,96197.84
2023-05-22T03:08:27.611Z,96198.13
2023-05-22T03:10:30.508Z,96195.75
2023-05-22T03:12:32.293Z,96203.19
2023-05-22T03:14:33.819Z,96195.38
2023-05-22T03:16:35.390Z,96202.31
2023-05-22T03:18:36.921Z,96203.19
2023-05-22T03:20:38.730Z,96168.94
2023-05-22T03:22:40.405Z,96199.31
2023-05-22T03:24:41.918Z,96195.00
2023-05-22T03:26:44.883Z,96199.72
2023-05-22T03:28:46.461Z,96201.75
2023-05-22T03:30:48.146Z,96202.38
2023-05-22T03:32:49.757Z,96204.88
2023-05-22T03:34:51.311Z,96205.25
2023-05-22T03:36:52.870Z,96202.75
2023-05-22T03:38:54.399Z,96195.00
2023-05-22T03:40:55.968Z,96193.13
2023-05-22T03:42:58.888Z,96197.44
2023-05-22T03:45:00.430Z,96200.75
2023-05-22T03:47:01.976Z,96202.38
2023-05-22T03:49:03.502Z,96207.75
2023-05-22T03:51:05.413Z,96193.00
2023-05-22T03:53:06.977Z,96213.50
2023-05-22T03:55:09.091Z,96203.63
2023-05-22T03:57:10.660Z,96211.06
2023-05-22T03:59:13.597Z,96213.09
2023-05-22T04:01:15.144Z,96208.97
2023-05-22T04:03:16.786Z,96214.34
2023-05-22T04:05:18.472Z,96204.06
2023-05-22T04:07:19.986Z,96212.25
2023-05-22T04:09:21.491Z,96216.72
2023-05-22T04:11:23.038Z,96219.84
2023-05-22T04:13:24.568Z,96225.38
2023-05-22T04:15:27.434Z,96224.78
2023-05-22T04:17:31.547Z,96219.25
2023-05-22T04:19:33.195Z,96223.28
2023-05-22T04:21:34.827Z,96222.09
2023-05-22T04:23:36.340Z,96225.81
2023-05-22T04:25:37.891Z,96227.44
2023-05-22T04:27:39.412Z,96234.50
2023-05-22T04:29:40.991Z,96233.25
2023-05-22T04:31:43.946Z,96228.09
2023-05-22T04:33:45.578Z,96224.94
2023-05-22T04:35:47.133Z,96220.38
2023-05-22T04:37:48.643Z,96220.31
2023-05-22T04:39:50.191Z,96220.31
2023-05-22T04:41:51.769Z,96226.50
2023-05-22T04:43:53.438Z,96223.59
2023-05-22T04:45:55.153Z,96230.16
2023-05-22T04:47:58.047Z,96226.44
2023-05-22T04:50:00.061Z,96216.53
2023-05-22T04:52:01.564Z,96208.06
2023-05-22T04:54:04.517Z,96220.56
2023-05-22T04:56:06.899Z,96213.50
2023-05-22T04:58:08.467Z,96219.53
2023-05-22T05:00:11.017Z,96211.72
2023-05-22T05:02:12.533Z,96211.72
2023-05-22T05:04:15.434Z,96215.09
2023-05-22T05:06:17.012Z,96215.44
2023-05-22T05:08:18.650Z,96214.84
2023-05-22T05:10:20.216Z,96216.28
2023-05-22T05:12:21.710Z,96229.75
2023-05-22T05:14:23.299Z,96214.28
2023-05-22T05:16:25.266Z,96225.78
2023-05-22T05:18:27.116Z,96226.09
2023-05-22T05:20:29.974Z,96223.84
2023-05-22T05:22:31.492Z,96219.84
2023-05-22T05:24:33.380Z,96226.31
2023-05-22T05:26:34.909Z,96232.16
2023-05-22T05:28:37.564Z,96231.72
2023-05-22T05:30:39.853Z,96227.69
2023-05-22T05:32:41.669Z,96228.78
2023-05-22T05:34:43.213Z,96229.72
2023-05-22T05:36:46.093Z,96225.94
2023-05-22T05:38:47.643Z,96230.47
2023-05-22T05:40:49.255Z,96204.53
2023-05-22T05:42:50.779Z,96219.75
2023-05-22T05:44:52.347Z,96229.72
2023-05-22T05:46:54.094Z,96225.72
2023-05-22T05:48:55.652Z,96222.19
2023-05-22T05:50:57.395Z,96226.53
2023-05-22T05:53:01.467Z,96224.88
2023-05-22T05:55:03.097Z,96231.69
2023-05-22T05:57:04.888Z,96219.78
2023-05-22T05:59:06.578Z,96233.94
2023-05-22T06:01:08.109Z,96229.19
2023-05-22T06:03:09.688Z,96230.06
2023-05-22T06:05:11.722Z,96231.47
2023-05-22T06:07:13.276Z,96235.47
2023-05-22T06:09:16.172Z,96242.03
2023-05-22T06:11:17.681Z,96242.38
2023-05-22T06:13:19.247Z,96254.88
2023-05-22T06:15:20.825Z,96247.75
2023-05-22T06:17:22.368Z,96259.22
2023-05-22T06:19:23.999Z,96244.34
2023-05-22T06:21:25.567Z,96249.16
2023-05-22T06:23:27.097Z,96237.00
2023-05-22T06:25:30.135Z,96239.91
2023-05-22T06:27:31.677Z,96237.41
2023-05-22T06:29:33.246Z,96257.78
2023-05-22T06:31:34.818Z,96255.53
2023-05-22T06:33:36.548Z,96252.94
2023-05-22T06:35:39.184Z,96250.56
2023-05-22T06:37:40.719Z,96249.75
2023-05-22T06:39:42.266Z,96249.22
2023-05-22T06:41:45.419Z,96240.50
2023-05-22T06:43:47.020Z,96245.16
2023-05-22T06:45:48.666Z,96251.38
2023-05-22T06:47:52.690Z,96248.91
2023-05-22T06:49:54.379Z,96258.75
2023-05-22T06:51:55.956Z,96257.81
2023-05-22T06:53:57.483Z,96252.19
2023-05-22T06:55:58.984Z,96256.19
2023-05-22T06:58:01.888Z,96261.09
2023-05-22T07:00:03.959Z,96256.19
2023-05-22T07:02:05.770Z,96252.56
2023-05-22T07:04:07.316Z,96267.28
2023-05-22T07:06:08.941Z,96257.81
2023-05-22T07:08:10.500Z,96237.97
2023-05-22T07:10:12.094Z,96263.69
2023-05-22T07:12:13.626Z,96242.59
2023-05-22T07:14:16.530Z,96273.44
2023-05-22T07:16:18.127Z,96269.69
2023-05-22T07:18:19.664Z,96274.50
2023-05-22T07:20:21.403Z,96278.03
2023-05-22T07:22:22.961Z,96278.59
2023-05-22T07:24:24.505Z,96278.44
2023-05-22T07:26:26.041Z,96276.34
2023-05-22T07:28:27.612Z,96265.38
2023-05-22T07:30:30.488Z,96281.16
2023-05-22T07:32:32.060Z,96282.22
2023-05-22T07:34:33.695Z,96279.13
2023-05-22T07:36:35.289Z,96283.00
2023-05-22T07:38:36.789Z,96275.38
2023-05-22T07:40:38.682Z,96286.63
2023-05-22T07:42:40.374Z,96283.25
2023-05-22T07:44:41.916Z,96282.53
2023-05-22T07:46:44.859Z,96279.94
2023-05-22T07:48:46.477Z,96283.69
2023-05-22T07:50:48.113Z,96287.38
2023-05-22T07:52:49.654Z,96291.19
2023-05-22T07:54:51.208Z,96284.50
2023-05-22T07:56:52.945Z,96282.88
2023-05-22T07:58:54.677Z,96276.09
2023-05-22T08:00:56.220Z,96284.47
2023-05-22T08:02:59.261Z,96273.19
2023-05-22T08:05:01.008Z,96286.09
2023-05-22T08:07:02.680Z,96276.16
2023-05-22T08:09:04.209Z,96280.91
2023-05-22T08:11:05.997Z,96288.09
2023-05-22T08:13:07.773Z,96277.16
2023-05-22T08:15:10.423Z,96289.19
2023-05-22T08:17:12.536Z,96283.38
2023-05-22T08:19:15.724Z,96281.94
2023-05-22T08:21:17.388Z,96284.69
2023-05-22T08:23:18.923Z,96291.13
2023-05-22T08:25:20.489Z,96270.44
2023-05-22T08:27:22.077Z,96280.94
2023-05-22T08:29:23.830Z,96269.81
2023-05-22T08:31:25.379Z,96273.69
2023-05-22T08:33:26.967Z,96277.59
2023-05-22T08:35:29.875Z,96269.38
2023-05-22T08:37:31.411Z,96269.59
2023-05-22T08:39:32.917Z,96268.34
2023-05-22T08:41:35.030Z,96276.25
2023-05-22T08:43:36.567Z,96270.22
2023-05-22T08:45:38.131Z,96275.41
2023-05-22T08:47:41.343Z,96279.69
2023-05-22T08:49:43.813Z,96273.97
2023-05-22T08:51:52.808Z,96263.75
2023-05-22T08:53:56.458Z,96273.13
2023-05-22T08:55:58.307Z,96271.00
2023-05-22T08:58:01.020Z,96272.38
2023-05-22T09:00:03.014Z,96271.06
2023-05-22T09:02:06.808Z,96269.97
2023-05-22T09:04:08.625Z,96268.56
2023-05-22T09:06:10.195Z,96270.38
2023-05-22T09:08:20.382Z,96266.66
2023-05-22T09:10:22.809Z,96273.56
2023-05-22T09:12:25.669Z,96272.78
2023-05-22T09:14:27.245Z,96270.59
2023-05-22T09:16:28.788Z,96273.91
2023-05-22T09:18:30.325Z,96256.34
2023-05-22T09:20:35.146Z,96276.28
2023-05-22T09:22:37.844Z,96265.47
2023-05-22T09:24:41.803Z,96265.88
2023-05-22T09:26:43.365Z,96267.94
2023-05-22T09:28:47.114Z,96253.69
2023-05-22T09:30:48.805Z,96268.56
2023-05-22T09:32:50.529Z,96266.38
2023-05-22T09:34:52.168Z,96271.84
2023-05-22T09:36:53.952Z,96265.06
2023-05-22T09:38:55.492Z,96257.69
2023-05-22T09:40:58.373Z,96252.47
2023-05-22T09:42:59.924Z,96255.53
2023-05-22T09:45:06.069Z,96257.72
2023-05-22T09:47:07.838Z,96256.09
2023-05-22T09:49:09.391Z,96261.22
2023-05-22T09:51:11.841Z,96237.09
2023-05-22T09:53:16.854Z,96254.66
2023-05-22T09:55:20.685Z,96255.44
2023-05-22T09:57:25.374Z,96252.22
2023-05-22T09:59:28.192Z,96244.22
2023-05-22T10:01:30.331Z,96249.59
2023-05-22T10:03:34.027Z,96251.28
2023-05-22T10:05:37.587Z,96248.31
2023-05-22T10:07:46.496Z,96247.00
2023-05-22T10:09:52.516Z,96247.34
2023-05-22T10:11:56.989Z,96247.06
2023-05-22T10:13:59.890Z,96248.16
2023-05-22T10:16:04.650Z,96246.50
2023-05-22T10:18:06.621Z,96246.78
2023-05-22T10:20:09.701Z,96244.84
2023-05-22T10:22:13.659Z,96245.44
2023-05-22T10:24:15.365Z,96238.91
2023-05-22T10:26:17.669Z,96247.31
2023-05-22T10:28:25.990Z,96248.09
2023-05-22T10:30:36.010Z,96243.25
2023-05-22T10:32:45.034Z,96245.44
2023-05-22T10:34:53.879Z,96244.34
2023-05-22T10:37:18.679Z,96234.84
2023-05-22T10:39:34.853Z,96239.41
2023-05-22T10:41:36.429Z,96238.09
2023-05-22T10:43:40.760Z,96231.03
2023-05-22T10:45:45.482Z,96230.22
2023-05-22T10:47:47.304Z,96227.53
2023-05-22T10:49:48.896Z,96212.88
2023-05-22T10:51:55.682Z,96228.06
2023-05-22T10:53:59.654Z,96216.13
2023-05-22T10:56:10.518Z,96212.88
2023-05-22T10:58:13.041Z,96209.91
2023-05-22T11:00:16.129Z,96208.81
2023-05-22T11:02:21.180Z,96199.84
2023-05-22T11:04:25.116Z,96185.19
2023-05-22T11:06:30.906Z,96204.72
2023-05-22T11:08:36.553Z,96204.72
2023-05-22T11:10:54.363Z,96206.88
2023-05-22T11:13:02.769Z,96208.75
2023-05-22T11:15:06.250Z,96206.28
2023-05-22T11:17:07.975Z,96194.28
2023-05-22T11:19:22.812Z,96189.88
2023-05-22T11:21:28.764Z,96189.81
2023-05-22T11:23:34.064Z,96193.88
2023-05-22T11:25:37.049Z,96190.94
2023-05-22T11:27:40.865Z,96191.44
2023-05-22T11:29:43.681Z,96183.00
2023-05-22T11:31:45.976Z,96184.91
2023-05-22T11:33:47.579Z,96179.38
2023-05-22T11:35:53.263Z,96169.50
2023-05-22T11:37:55.444Z,96173.81
2023-05-22T11:39:58.387Z,96171.13
2023-05-22T11:41:59.899Z,96169.94
2023-05-22T11:44:02.690Z,96168.75
2023-05-22T11:46:08.002Z,96162.78
2023-05-22T11:48:10.324Z,96169.75
2023-05-22T11:50:12.839Z,96169.97
2023-05-22T11:52:17.266Z,96169.06
2023-05-22T11:54:18.856Z,96167.56
2023-05-22T11:56:21.187Z,96163.28
2023-05-22T11:58:27.547Z,96162.81
2023-05-22T12:00:30.936Z,96166.34
2023-05-22T12:02:32.659Z,96172.84
2023-05-22T12:04:34.369Z,96155.00
2023-05-22T12:06:36.081Z,96154.63
2023-05-22T12:08:39.229Z,96158.44
2023-05-22T12:10:46.834Z,96173.59
2023-05-22T12:12:48.466Z,96160.69
2023-05-22T12:14:50.102Z,96155.75
2023-05-22T12:16:52.302Z,96160.97
2023-05-22T12:18:54.263Z,96154.53
2023-05-22T12:20:56.053Z,96154.31
2023-05-22T12:22:57.604Z,96149.97
2023-05-22T12:25:00.543Z,96145.44
2023-05-22T12:27:02.089Z,96145.94
2023-05-22T12:29:04.223Z,96149.25
2023-05-22T12:31:05.802Z,96156.56
2023-05-22T12:33:12.754Z,96158.47
2023-05-22T12:35:15.590Z,96158.09
2023-05-22T12:37:21.285Z,96161.22
2023-05-22T12:39:22.899Z,96166.16
2023-05-22T12:41:25.762Z,96170.06
2023-05-22T12:43:27.345Z,96170.16
2023-05-22T12:45:28.843Z,96166.00
2023-05-22T12:47:30.413Z,96159.72
2023-05-22T12:49:31.956Z,96167.03
2023-05-22T12:51:34.129Z,96162.97
2023-05-22T12:53:35.686Z,96158.91
2023-05-22T12:55:38.099Z,96151.41
2023-05-22T12:57:40.997Z,96151.31
2023-05-22T12:59:42.524Z,96146.25
2023-05-22T13:01:44.199Z,96149.53
2023-05-22T13:03:46.365Z,96150.69
2023-05-22T13:05:47.960Z,96146.91
2023-05-22T13:07:49.847Z,96149.22
2023-05-22T13:09:51.374Z,96148.91
2023-05-22T13:11:53.073Z,96140.28
2023-05-22T13:13:56.035Z,96146.22
2023-05-22T13:15:57.594Z,96133.56
2023-05-22T13:17:59.334Z,96148.31
2023-05-22T13:20:00.925Z,96151.56
2023-05-22T13:22:02.457Z,96150.41
2023-05-22T13:24:04.273Z,96153.25
2023-05-22T13:26:05.922Z,96156.94
2023-05-22T13:28:07.657Z,96143.81
2023-05-22T13:30:11.327Z,96152.66
2023-05-22T13:32:13.592Z,96154.44
2023-05-22T13:34:15.212Z,96161.66
2023-05-22T13:36:17.631Z,96161.78
2023-05-22T13:38:19.256Z,96167.25
2023-05-22T13:40:20.830Z,96168.50
2023-05-22T13:42:22.424Z,96169.84
2023-05-22T13:44:24.002Z,96173.75
2023-05-22T13:46:26.932Z,96169.91
2023-05-22T13:48:28.589Z,96158.34
2023-05-22T13:50:30.145Z,96165.25
2023-05-22T13:52:31.751Z,96156.19
2023-05-22T13:54:33.316Z,96162.25
2023-05-22T13:56:35.366Z,96168.66
2023-05-22T13:58:36.888Z,96168.22
2023-05-22T14:00:38.459Z,96180.97
2023-05-22T14:02:41.410Z,96174.06
2023-05-22T14:04:43.024Z,96196.88
2023-05-22T14:06:44.576Z,96189.13
2023-05-22T14:08:46.137Z,96190.94
2023-05-22T14:10:47.663Z,96188.72
2023-05-22T14:12:49.228Z,96187.50
2023-05-22T14:14:50.943Z,96187.78
2023-05-22T14:16:52.837Z,96182.63
2023-05-22T14:18:55.999Z,96184.31
2023-05-22T14:20:57.583Z,96195.41
2023-05-22T14:22:59.131Z,96186.75
2023-05-22T14:25:00.688Z,96181.88
2023-05-22T14:27:02.244Z,96179.66
2023-05-22T14:29:03.784Z,96167.72
2023-05-22T14:31:05.386Z,96166.91
2023-05-22T14:33:07.699Z,96167.19
2023-05-22T14:35:10.735Z,96163.13
2023-05-22T14:37:12.254Z,96169.94
2023-05-22T14:39:13.795Z,96181.34
2023-05-22T14:41:15.317Z,96181.88
2023-05-22T14:43:16.826Z,96187.00
2023-05-22T14:45:18.442Z,96201.13
2023-05-22T14:47:19.990Z,96216.91
2023-05-22T14:49:21.547Z,96220.69
2023-05-22T14:51:24.503Z,96227.75
2023-05-22T14:53:26.088Z,96233.47
2023-05-22T14:55:27.685Z,96231.28
2023-05-22T14:57:29.247Z,96235.91
2023-05-22T14:59:30.771Z,96228.56
2023-05-22T15:01:32.390Z,96223.16
2023-05-22T15:03:34.010Z,96218.25
2023-05-22T15:05:35.581Z,96214.47
2023-05-22T15:07:44.825Z,96212.84
2023-05-22T15:09:47.792Z,96211.78
2023-05-22T15:11:49.462Z,96183.28
2023-05-22T15:13:51.209Z,96213.41
2023-05-22T15:15:52.782Z,96217.72
2023-05-22T15:17:54.380Z,96220.72
2023-05-22T15:19:55.936Z,96216.13
2023-05-22T15:22:03.154Z,96212.84
2023-05-22T15:24:12.014Z,96215.03
2023-05-22T15:26:13.526Z,96213.38
2023-05-22T15:28:15.077Z,96208.47
2023-05-22T15:30:16.971Z,96204.94
2023-05-22T15:32:18.703Z,96197.66
2023-05-22T15:34:20.342Z,96200.59
2023-05-22T15:36:22.247Z,96179.19
2023-05-22T15:38:23.789Z,96185.69
2023-05-22T15:40:26.643Z,96182.44
2023-05-22T15:42:28.159Z,96165.94
2023-05-22T15:44:29.712Z,96165.66
2023-05-22T15:46:31.272Z,96153.72
2023-05-22T15:48:32.904Z,96158.59
2023-05-22T15:50:34.789Z,96158.34
2023-05-22T15:52:36.714Z,96151.81
2023-05-22T15:54:38.246Z,96153.44
2023-05-22T15:56:41.181Z,96148.25
2023-05-22T15:58:42.689Z,96148.22
2023-05-22T16:00:44.266Z,96140.25
2023-05-22T16:02:45.895Z,96138.75
2023-05-22T16:04:48.783Z,96146.94
2023-05-22T16:06:50.415Z,96145.31
2023-05-22T16:08:51.926Z,96148.44
2023-05-22T16:10:53.444Z,96148.91
2023-05-22T16:12:56.491Z,96145.72
2023-05-22T16:15:01.055Z,96157.09
2023-05-22T16:17:03.697Z,96167.31
2023-05-22T16:19:05.332Z,96163.72
2023-05-22T16:21:06.963Z,96158.78
2023-05-22T16:23:08.527Z,96184.63
2023-05-22T16:25:10.230Z,96180.31
2023-05-22T16:27:11.778Z,96181.91
2023-05-22T16:29:14.735Z,96183.88
2023-05-22T16:31:18.916Z,96181.34
2023-05-22T16:33:20.898Z,96175.69
2023-05-22T16:35:22.489Z,96182.38
2023-05-22T16:37:24.061Z,96178.81
2023-05-22T16:39:26.493Z,96172.44
2023-05-22T16:41:28.125Z,96177.28
2023-05-22T16:43:29.631Z,96179.00
2023-05-22T16:45:32.518Z,96172.25
2023-05-22T16:47:34.172Z,96175.22
2023-05-22T16:49:35.814Z,96151.09
2023-05-22T16:51:37.405Z,96176.91
2023-05-22T16:53:40.360Z,96181.66
2023-05-22T16:55:42.018Z,96186.78
2023-05-22T16:57:43.819Z,96190.69
2023-05-22T16:59:45.930Z,96180.63
2023-05-22T17:01:48.834Z,96179.03
2023-05-22T17:03:50.476Z,96182.31
2023-05-22T17:05:52.051Z,96173.84
2023-05-22T17:07:53.589Z,96178.31
2023-05-22T17:09:55.105Z,96177.09
2023-05-22T17:11:56.634Z,96173.75
2023-05-22T17:13:58.194Z,96172.59
2023-05-22T17:15:59.790Z,96183.84
2023-05-22T17:18:03.967Z,96181.84
2023-05-22T17:20:06.588Z,96180.28
2023-05-22T17:22:08.154Z,96181.91
2023-05-22T17:24:09.725Z,96187.88
2023-05-22T17:26:11.337Z,96183.81
2023-05-22T17:28:13.066Z,96182.47
2023-05-22T17:30:14.671Z,96200.38
2023-05-22T17:32:16.380Z,96197.69
2023-05-22T17:34:19.298Z,96198.78
2023-05-22T17:36:20.895Z,96209.31
2023-05-22T17:38:22.440Z,96201.41
2023-05-22T17:40:36.522Z,96214.94
2023-05-22T17:42:46.051Z,96226.28
2023-05-22T17:44:47.580Z,96216.72
2023-05-22T17:46:49.118Z,96218.00
2023-05-22T17:48:50.624Z,96230.69
2023-05-22T17:50:53.705Z,96237.72
2023-05-22T17:52:55.250Z,96235.22
2023-05-22T17:54:56.807Z,96239.38
2023-05-22T17:56:58.355Z,96236.31
2023-05-22T17:58:59.872Z,96231.31
2023-05-22T18:01:01.421Z,96236.97
2023-05-22T18:03:03.105Z,96230.03
2023-05-22T18:05:06.025Z,96226.91
2023-05-22T18:07:08.985Z,96226.09
2023-05-22T18:09:10.491Z,96228.19
2023-05-22T18:11:12.048Z,96219.28
2023-05-22T18:13:13.616Z,96217.34
2023-05-22T18:15:15.212Z,96222.19
2023-05-22T18:17:16.782Z,96216.53
2023-05-22T18:19:18.427Z,96212.75
2023-05-22T18:21:20.018Z,96213.84
2023-05-22T18:23:22.915Z,96215.47
2023-05-22T18:25:24.611Z,96216.06
2023-05-22T18:27:26.185Z,96223.44
2023-05-22T18:29:27.734Z,96224.88
2023-05-22T18:31:29.308Z,96228.38
2023-05-22T18:33:30.870Z,96229.16
2023-05-22T18:35:32.381Z,96237.00
2023-05-22T18:37:33.911Z,96227.00
2023-05-22T18:39:36.786Z,96229.72
2023-05-22T18:41:38.343Z,96232.97
2023-05-22T18:43:39.914Z,96226.59
2023-05-22T18:45:41.560Z,96231.00
2023-05-22T18:47:43.181Z,96214.22
2023-05-22T18:49:44.981Z,96223.00
2023-05-22T18:51:46.655Z,96229.22
2023-05-22T18:53:48.200Z,96240.22
2023-05-22T18:55:51.106Z,96226.78
2023-05-22T18:57:52.704Z,96228.09
2023-05-22T18:59:54.210Z,96233.00
2023-05-22T19:01:55.718Z,96227.28
2023-05-22T19:03:57.297Z,96224.00
2023-05-22T19:05:58.857Z,96235.94
2023-05-22T19:08:00.381Z,96236.69
2023-05-22T19:10:01.956Z,96242.78
2023-05-22T19:12:05.656Z,96257.94
2023-05-22T19:14:07.196Z,96251.56
2023-05-22T19:16:08.820Z,96217.59
2023-05-22T19:18:10.552Z,96254.66
2023-05-22T19:20:12.360Z,96264.91
2023-05-22T19:22:14.918Z,96260.53
2023-05-22T19:24:17.439Z,96272.50
2023-05-22T19:26:19.189Z,96265.78
2023-05-22T19:28:22.051Z,96279.03
2023-05-22T19:30:23.580Z,96276.06
2023-05-22T19:32:25.105Z,96277.91
2023-05-22T19:34:26.649Z,96288.53
2023-05-22T19:36:28.195Z,96289.41
2023-05-22T19:38:29.722Z,96291.31
2023-05-22T19:40:31.285Z,96292.63
2023-05-22T19:42:33.045Z,96292.94
2023-05-22T19:44:35.954Z,96302.34
2023-05-22T19:46:37.595Z,96293.94
2023-05-22T19:48:39.241Z,96294.75
2023-05-22T19:50:41.191Z,96300.97
2023-05-22T19:52:43.421Z,96302.03
2023-05-22T19:54:44.976Z,96294.44
2023-05-22T19:56:46.518Z,96294.38
2023-05-22T19:58:48.073Z,96294.28
2023-05-22T20:00:50.957Z,96291.03
2023-05-22T20:02:52.574Z,96291.84
2023-05-22T20:04:54.237Z,96296.94
2023-05-22T20:06:55.798Z,96298.06
2023-05-22T20:08:57.329Z,96302.31
2023-05-22T20:10:58.878Z,96301.75
2023-05-22T20:13:00.389Z,96303.31
2023-05-22T20:15:02.114Z,96306.03
2023-05-22T20:17:05.417Z,96304.88
2023-05-22T20:19:06.955Z,96303.66
2023-05-22T20:21:09.827Z,96311.34
2023-05-22T20:23:11.360Z,96302.84
2023-05-22T20:25:13.057Z,96302.34
2023-05-22T20:27:14.687Z,96308.25
2023-05-22T20:29:16.796Z,96314.13
2023-05-22T20:31:18.411Z,96312.63
2023-05-22T20:33:21.365Z,96309.84
2023-05-22T20:35:23.085Z,96313.13
2023-05-22T20:37:24.756Z,96308.22
2023-05-22T20:39:26.325Z,96308.06
2023-05-22T20:41:28.086Z,96325.78
2023-05-22T20:43:29.722Z,96299.63
2023-05-22T20:45:31.374Z,96333.41
2023-05-22T20:47:34.226Z,96338.31
2023-05-22T20:49:37.117Z,96328.13
2023-05-22T20:51:38.660Z,96339.84
2023-05-22T20:53:40.172Z,96337.63
2023-05-22T20:55:41.969Z,96316.75
2023-05-22T20:57:43.751Z,96347.25
2023-05-22T20:59:45.338Z,96352.00
2023-05-22T21:01:46.901Z,96350.25
2023-05-22T21:03:48.521Z,96346.25
2023-05-22T21:05:51.562Z,96350.91
2023-05-22T21:07:53.167Z,96350.66
2023-05-22T21:09:54.677Z,96353.56
2023-05-22T21:11:56.221Z,96349.97
2023-05-22T21:13:57.740Z,96360.09
2023-05-22T21:15:59.264Z,96363.19
2023-05-22T21:18:00.806Z,96355.59
2023-05-22T21:20:02.458Z,96362.13
2023-05-22T21:22:05.622Z,96359.09
2023-05-22T21:24:08.195Z,96356.13
2023-05-22T21:26:09.771Z,96366.66
2023-05-22T21:28:11.432Z,96338.44
2023-05-22T21:30:13.441Z,96376.03
2023-05-22T21:32:15.107Z,96375.53
2023-05-22T21:34:16.662Z,96374.69
2023-05-22T21:36:18.162Z,96374.94
2023-05-22T21:38:21.019Z,96370.03
2023-05-22T21:40:22.730Z,96373.31
2023-05-22T21:42:26.155Z,96383.41
2023-05-22T21:44:27.861Z,96383.75
2023-05-22T21:46:29.383Z,96372.41
2023-05-22T21:48:30.948Z,96386.34
2023-05-22T21:50:32.554Z,96385.28
2023-05-22T21:52:34.116Z,96388.56
2023-05-22T21:54:36.970Z,96384.13
2023-05-22T21:56:38.540Z,96371.03
2023-05-22T21:58:40.093Z,96376.41
2023-05-22T22:00:41.789Z,96385.19
2023-05-22T22:02:43.509Z,96385.91
2023-05-22T22:04:45.129Z,96386.59
2023-05-22T22:06:46.680Z,96380.53
2023-05-22T22:08:48.228Z,96382.41
2023-05-22T22:10:51.114Z,96383.34
2023-05-22T22:12:52.676Z,96383.56
2023-05-22T22:14:54.208Z,96383.47
2023-05-22T22:16:55.788Z,96376.09
2023-05-22T22:18:57.386Z,96388.50
2023-05-22T22:20:59.043Z,96395.63
2023-05-22T22:23:00.912Z,96391.16
2023-05-22T22:25:02.626Z,96395.38
2023-05-22T22:27:06.122Z,96395.50
2023-05-22T22:29:07.522Z,96394.66
2023-05-22T22:31:09.060Z,96397.59
2023-05-22T22:33:10.706Z,96386.91
2023-05-22T22:35:12.281Z,96392.16
2023-05-22T22:37:13.853Z,96399.75
2023-05-22T22:39:15.431Z,96398.94
2023-05-22T22:41:17.019Z,96398.13
2023-05-22T22:43:20.124Z,96387.81
2023-05-22T22:45:21.631Z,96395.31
2023-05-22T22:47:23.239Z,96402.06
2023-05-22T22:49:24.818Z,96397.16
2023-05-22T22:51:26.339Z,96404.63
2023-05-22T22:53:27.872Z,96398.09
2023-05-22T22:55:29.559Z,96393.16
2023-05-22T22:57:31.350Z,96393.63
2023-05-22T22:59:34.275Z,96398.41
2023-05-22T23:01:35.877Z,96398.41
2023-05-22T23:03:37.438Z,96398.28
2023-05-22T23:05:39.238Z,96401.78
2023-05-22T23:07:40.938Z,96403.34
2023-05-22T23:09:42.491Z,96401.69
2023-05-22T23:11:44.064Z,96400.63
2023-05-22T23:13:45.622Z,96410.94
2023-05-22T23:15:48.614Z,96410.56
2023-05-22T23:17:51.838Z,96411.16
2023-05-22T23:19:53.519Z,96413.13
2023-05-22T23:21:55.074Z,96406.56
2023-05-22T23:23:56.590Z,96407.75
2023-05-22T23:25:59.080Z,96400.41
2023-05-22T23:28:00.783Z,96401.31
2023-05-22T23:30:02.354Z,96402.84
2023-05-22T23:32:05.532Z,96404.91
2023-05-22T23:34:07.169Z,96402.00
2023-05-22T23:36:08.756Z,96399.31
2023-05-22T23:38:10.275Z,96400.72
2023-05-22T23:40:12.570Z,96406.09
2023-05-22T23:42:14.113Z,96399.81
2023-05-22T23:44:15.668Z,96408.34
2023-05-22T23:46:17.263Z,96402.09
2023-05-22T23:48:20.141Z,96403.16
2023-05-22T23:50:21.747Z,96404.88
2023-05-22T23:52:23.323Z,96415.69
2023-05-22T23:54:24.940Z,96415.13
2023-05-22T23:56:26.509Z,96420.03
2023-05-22T23:58:28.038Z,96420.47
